sensor_id;sensor_type;location;lat;lon;timestamp;temperature;humidity
9450;DHT22;4763;48.370;10.874;2024-03-08T04:04:06;0.80;99.90
9450;DHT22;4763;48.370;10.874;2024-03-08T04:53:11;1.10;99.90
9450;DHT22;4763;48.370;10.874;2024-03-08T04:55:39;1.20;99.90
9450;DHT22;4763;48.370;10.874;2024-03-08T04:58:06;1.20;99.90
9450;DHT22;4763;48.370;10.874;2024-03-08T05:00:33;1.20;99.90
9450;DHT22;4763;48.370;10.874;2024-03-08T05:03:00;1.20;99.90
9450;DHT22;4763;48.370;10.874;2024-03-08T05:05:26;1.20;99.90
9450;DHT22;4763;48.370;10.874;2024-03-08T05:07:54;1.20;99.90
9450;DHT22;4763;48.370;10.874;2024-03-08T05:10:22;1.20;99.90
9450;DHT22;4763;48.370;10.874;2024-03-08T05:12:49;1.20;99.90
9450;DHT22;4763;48.370;10.874;2024-03-08T05:15:16;1.20;99.90
9450;DHT22;4763;48.370;10.874;2024-03-08T05:17:43;1.20;99.90
9450;DHT22;4763;48.370;10.874;2024-03-08T05:20:10;1.20;99.90
9450;DHT22;4763;48.370;10.874;2024-03-08T05:22:38;1.20;99.90
9450;DHT22;4763;48.370;10.874;2024-03-08T05:25:06;1.20;99.90
9450;DHT22;4763;48.370;10.874;2024-03-08T05:27:36;1.20;99.90
9450;DHT22;4763;48.370;10.874;2024-03-08T05:30:03;1.30;99.90
9450;DHT22;4763;48.370;10.874;2024-03-08T05:32:31;1.30;99.90
9450;DHT22;4763;48.370;10.874;2024-03-08T05:34:58;1.30;99.90
9450;DHT22;4763;48.370;10.874;2024-03-08T05:37:24;1.30;99.90
9450;DHT22;4763;48.370;10.874;2024-03-08T05:39:51;1.30;99.90
9450;DHT22;4763;48.370;10.874;2024-03-08T05:42:19;1.30;99.90
9450;DHT22;4763;48.370;10.874;2024-03-08T05:44:47;1.30;99.90
9450;DHT22;4763;48.370;10.874;2024-03-08T05:47:15;1.30;99.90
9450;DHT22;4763;48.370;10.874;2024-03-08T05:49:44;1.40;99.90
9450;DHT22;4763;48.370;10.874;2024-03-08T05:52:11;1.40;99.90
9450;DHT22;4763;48.370;10.874;2024-03-08T05:54:37;1.40;99.90
9450;DHT22;4763;48.370;10.874;2024-03-08T05:57:06;1.40;99.90
9450;DHT22;4763;48.370;10.874;2024-03-08T05:59:33;1.40;99.90
9450;DHT22;4763;48.370;10.874;2024-03-08T06:02:01;1.50;99.90
9450;DHT22;4763;48.370;10.874;2024-03-08T06:04:29;1.50;99.90
9450;DHT22;4763;48.370;10.874;2024-03-08T06:06:55;1.50;99.90
9450;DHT22;4763;48.370;10.874;2024-03-08T06:09:23;1.40;99.90
9450;DHT22;4763;48.370;10.874;2024-03-08T06:11:50;1.40;99.90
9450;DHT22;4763;48.370;10.874;2024-03-08T06:14:20;1.40;99.90
9450;DHT22;4763;48.370;10.874;2024-03-08T06:16:48;1.60;99.90
9450;DHT22;4763;48.370;10.874;2024-03-08T06:19:17;1.60;99.90
9450;DHT22;4763;48.370;10.874;2024-03-08T06:21:43;1.50;99.90
9450;DHT22;4763;48.370;10.874;2024-03-08T06:24:11;1.60;99.90
9450;DHT22;4763;48.370;10.874;2024-03-08T06:26:38;1.60;99.90
9450;DHT22;4763;48.370;10.874;2024-03-08T06:29:04;1.60;99.90
9450;DHT22;4763;48.370;10.874;2024-03-08T06:31:32;1.60;99.90
9450;DHT22;4763;48.370;10.874;2024-03-08T06:33:59;1.60;99.90
9450;DHT22;4763;48.370;10.874;2024-03-08T06:36:28;1.70;99.90
9450;DHT22;4763;48.370;10.874;2024-03-08T06:38:55;1.70;99.90
9450;DHT22;4763;48.370;10.874;2024-03-08T06:41:23;1.70;99.90
9450;DHT22;4763;48.370;10.874;2024-03-08T06:43:50;1.70;99.90
9450;DHT22;4763;48.370;10.874;2024-03-08T06:46:22;1.80;99.90
9450;DHT22;4763;48.370;10.874;2024-03-08T06:48:49;1.80;99.90
9450;DHT22;4763;48.370;10.874;2024-03-08T06:51:16;1.80;99.90
9450;DHT22;4763;48.370;10.874;2024-03-08T06:53:44;1.80;99.90
9450;DHT22;4763;48.370;10.874;2024-03-08T06:56:11;1.80;99.90
9450;DHT22;4763;48.370;10.874;2024-03-08T06:58:38;1.70;99.90
9450;DHT22;4763;48.370;10.874;2024-03-08T07:01:07;1.70;99.90
9450;DHT22;4763;48.370;10.874;2024-03-08T07:03:39;1.70;99.90
9450;DHT22;4763;48.370;10.874;2024-03-08T07:06:09;1.80;99.90
9450;DHT22;4763;48.370;10.874;2024-03-08T07:08:39;1.80;99.90
9450;DHT22;4763;48.370;10.874;2024-03-08T07:11:07;1.90;99.90
9450;DHT22;4763;48.370;10.874;2024-03-08T07:13:34;1.90;99.90
9450;DHT22;4763;48.370;10.874;2024-03-08T07:16:01;1.90;99.90
9450;DHT22;4763;48.370;10.874;2024-03-08T07:18:28;1.90;99.90
9450;DHT22;4763;48.370;10.874;2024-03-08T07:20:55;2.00;99.90
9450;DHT22;4763;48.370;10.874;2024-03-08T07:23:22;2.00;99.90
9450;DHT22;4763;48.370;10.874;2024-03-08T07:26:03;2.00;99.90
9450;DHT22;4763;48.370;10.874;2024-03-08T07:28:31;1.90;99.90
9450;DHT22;4763;48.370;10.874;2024-03-08T07:30:58;2.10;99.90
9450;DHT22;4763;48.370;10.874;2024-03-08T07:33:40;2.00;99.90
9450;DHT22;4763;48.370;10.874;2024-03-08T07:36:07;2.00;99.90
9450;DHT22;4763;48.370;10.874;2024-03-08T07:38:33;2.10;99.90
9450;DHT22;4763;48.370;10.874;2024-03-08T07:41:00;2.10;99.90
9450;DHT22;4763;48.370;10.874;2024-03-08T07:43:27;2.20;99.90
9450;DHT22;4763;48.370;10.874;2024-03-08T07:45:55;2.20;99.90
9450;DHT22;4763;48.370;10.874;2024-03-08T07:48:22;2.20;99.90
9450;DHT22;4763;48.370;10.874;2024-03-08T07:50:49;2.30;99.90
9450;DHT22;4763;48.370;10.874;2024-03-08T07:53:16;2.40;99.90
9450;DHT22;4763;48.370;10.874;2024-03-08T07:55:43;2.40;99.90
9450;DHT22;4763;48.370;10.874;2024-03-08T07:58:10;2.40;99.90
9450;DHT22;4763;48.370;10.874;2024-03-08T08:00:37;2.30;99.90
9450;DHT22;4763;48.370;10.874;2024-03-08T08:03:06;2.40;99.90
9450;DHT22;4763;48.370;10.874;2024-03-08T08:05:33;2.40;99.90
9450;DHT22;4763;48.370;10.874;2024-03-08T08:08:01;2.50;99.90
9450;DHT22;4763;48.370;10.874;2024-03-08T08:10:28;2.50;99.90
9450;DHT22;4763;48.370;10.874;2024-03-08T08:12:55;2.60;99.90
9450;DHT22;4763;48.370;10.874;2024-03-08T08:15:22;2.60;99.90
9450;DHT22;4763;48.370;10.874;2024-03-08T08:17:49;2.70;99.90
9450;DHT22;4763;48.370;10.874;2024-03-08T08:20:18;2.80;99.90
9450;DHT22;4763;48.370;10.874;2024-03-08T08:22:45;2.90;99.90
9450;DHT22;4763;48.370;10.874;2024-03-08T08:25:13;2.90;99.90
9450;DHT22;4763;48.370;10.874;2024-03-08T08:27:41;2.90;99.90
9450;DHT22;4763;48.370;10.874;2024-03-08T08:30:09;2.90;99.90
9450;DHT22;4763;48.370;10.874;2024-03-08T08:32:37;2.90;99.90
9450;DHT22;4763;48.370;10.874;2024-03-08T08:35:06;3.00;99.90
9450;DHT22;4763;48.370;10.874;2024-03-08T08:37:38;2.90;99.90
9450;DHT22;4763;48.370;10.874;2024-03-08T08:40:06;3.00;99.90
9450;DHT22;4763;48.370;10.874;2024-03-08T08:42:36;3.10;99.90
9450;DHT22;4763;48.370;10.874;2024-03-08T08:45:03;3.20;99.90
9450;DHT22;4763;48.370;10.874;2024-03-08T08:47:34;3.20;99.90
9450;DHT22;4763;48.370;10.874;2024-03-08T08:50:00;3.30;99.90
9450;DHT22;4763;48.370;10.874;2024-03-08T08:52:28;3.20;99.90
9450;DHT22;4763;48.370;10.874;2024-03-08T08:54:57;3.20;99.90
9450;DHT22;4763;48.370;10.874;2024-03-08T08:57:23;3.30;99.90
9450;DHT22;4763;48.370;10.874;2024-03-08T08:59:51;3.40;99.90
9450;DHT22;4763;48.370;10.874;2024-03-08T09:02:18;3.40;99.90
9450;DHT22;4763;48.370;10.874;2024-03-08T09:04:46;3.50;99.90
9450;DHT22;4763;48.370;10.874;2024-03-08T09:07:14;3.50;99.90
9450;DHT22;4763;48.370;10.874;2024-03-08T09:09:42;3.60;99.90
9450;DHT22;4763;48.370;10.874;2024-03-08T09:12:10;3.80;99.90
9450;DHT22;4763;48.370;10.874;2024-03-08T09:14:39;3.80;99.90
9450;DHT22;4763;48.370;10.874;2024-03-08T09:17:05;4.10;99.90
9450;DHT22;4763;48.370;10.874;2024-03-08T09:19:34;4.50;99.90
9450;DHT22;4763;48.370;10.874;2024-03-08T09:22:00;4.70;99.90
9450;DHT22;4763;48.370;10.874;2024-03-08T09:24:29;4.70;99.90
9450;DHT22;4763;48.370;10.874;2024-03-08T09:26:56;4.80;99.90
9450;DHT22;4763;48.370;10.874;2024-03-08T09:29:25;4.70;99.90
9450;DHT22;4763;48.370;10.874;2024-03-08T09:31:52;4.90;99.90
9450;DHT22;4763;48.370;10.874;2024-03-08T09:34:19;5.00;99.90
9450;DHT22;4763;48.370;10.874;2024-03-08T09:36:46;5.00;99.90
9450;DHT22;4763;48.370;10.874;2024-03-08T09:39:13;5.00;99.90
9450;DHT22;4763;48.370;10.874;2024-03-08T09:41:42;5.00;99.90
9450;DHT22;4763;48.370;10.874;2024-03-08T09:44:10;5.00;99.90
9450;DHT22;4763;48.370;10.874;2024-03-08T09:46:38;4.90;99.90
9450;DHT22;4763;48.370;10.874;2024-03-08T09:49:07;5.00;99.90
9450;DHT22;4763;48.370;10.874;2024-03-08T09:51:38;5.00;99.90
9450;DHT22;4763;48.370;10.874;2024-03-08T09:54:07;4.90;99.90
9450;DHT22;4763;48.370;10.874;2024-03-08T09:56:37;4.90;99.90
9450;DHT22;4763;48.370;10.874;2024-03-08T09:59:07;4.90;99.90
9450;DHT22;4763;48.370;10.874;2024-03-08T10:02:16;5.00;99.90
9450;DHT22;4763;48.370;10.874;2024-03-08T10:04:44;5.00;99.90
9450;DHT22;4763;48.370;10.874;2024-03-08T10:07:13;5.00;99.90
9450;DHT22;4763;48.370;10.874;2024-03-08T10:09:40;4.90;99.90
9450;DHT22;4763;48.370;10.874;2024-03-08T10:12:08;5.00;99.90
9450;DHT22;4763;48.370;10.874;2024-03-08T10:14:39;4.90;99.90
9450;DHT22;4763;48.370;10.874;2024-03-08T10:17:06;5.00;99.90
9450;DHT22;4763;48.370;10.874;2024-03-08T10:19:35;5.00;99.90
9450;DHT22;4763;48.370;10.874;2024-03-08T10:22:02;5.30;99.90
9450;DHT22;4763;48.370;10.874;2024-03-08T10:24:30;5.20;99.90
9450;DHT22;4763;48.370;10.874;2024-03-08T10:26:59;5.30;99.90
9450;DHT22;4763;48.370;10.874;2024-03-08T10:29:27;5.50;99.90
9450;DHT22;4763;48.370;10.874;2024-03-08T10:31:54;5.30;99.90
9450;DHT22;4763;48.370;10.874;2024-03-08T10:34:22;5.60;99.90
9450;DHT22;4763;48.370;10.874;2024-03-08T10:36:51;5.90;99.90
9450;DHT22;4763;48.370;10.874;2024-03-08T10:39:22;6.10;99.90
9450;DHT22;4763;48.370;10.874;2024-03-08T10:41:53;6.30;99.90
9450;DHT22;4763;48.370;10.874;2024-03-08T10:44:33;6.40;99.90
9450;DHT22;4763;48.370;10.874;2024-03-08T10:47:06;6.50;99.90
9450;DHT22;4763;48.370;10.874;2024-03-08T10:49:38;6.50;99.90
9450;DHT22;4763;48.370;10.874;2024-03-08T10:52:06;6.50;99.90
9450;DHT22;4763;48.370;10.874;2024-03-08T10:54:34;6.70;99.90
9450;DHT22;4763;48.370;10.874;2024-03-08T10:57:05;7.00;99.90
9450;DHT22;4763;48.370;10.874;2024-03-08T10:59:34;7.30;99.90
9450;DHT22;4763;48.370;10.874;2024-03-08T11:02:01;7.50;99.90
9450;DHT22;4763;48.370;10.874;2024-03-08T11:04:31;7.60;99.90
9450;DHT22;4763;48.370;10.874;2024-03-08T11:07:01;7.60;99.90
9450;DHT22;4763;48.370;10.874;2024-03-08T11:09:35;7.60;99.90
9450;DHT22;4763;48.370;10.874;2024-03-08T11:12:22;8.00;99.90
9450;DHT22;4763;48.370;10.874;2024-03-08T11:14:51;8.00;99.90
9450;DHT22;4763;48.370;10.874;2024-03-08T11:17:21;8.10;99.90
9450;DHT22;4763;48.370;10.874;2024-03-08T11:19:50;8.30;99.90
9450;DHT22;4763;48.370;10.874;2024-03-08T11:22:32;8.60;99.90
9450;DHT22;4763;48.370;10.874;2024-03-08T11:28:55;8.70;99.90
9450;DHT22;4763;48.370;10.874;2024-03-08T11:31:25;8.80;99.90
9450;DHT22;4763;48.370;10.874;2024-03-08T11:34:15;8.90;99.90
9450;DHT22;4763;48.370;10.874;2024-03-08T11:36:56;9.00;99.90
9450;DHT22;4763;48.370;10.874;2024-03-08T11:39:53;9.00;99.90
9450;DHT22;4763;48.370;10.874;2024-03-08T11:42:36;9.20;99.90
9450;DHT22;4763;48.370;10.874;2024-03-08T11:45:36;9.10;99.90
9450;DHT22;4763;48.370;10.874;2024-03-08T11:48:22;9.30;99.90
9450;DHT22;4763;48.370;10.874;2024-03-08T11:51:04;9.30;99.90
9450;DHT22;4763;48.370;10.874;2024-03-08T11:53:46;9.60;99.90
9450;DHT22;4763;48.370;10.874;2024-03-08T11:56:40;9.60;99.90
9450;DHT22;4763;48.370;10.874;2024-03-08T11:59:25;9.40;99.90
9450;DHT22;4763;48.370;10.874;2024-03-08T12:02:02;9.50;99.90
9450;DHT22;4763;48.370;10.874;2024-03-08T12:04:29;9.90;99.90
9450;DHT22;4763;48.370;10.874;2024-03-08T12:07:01;10.10;99.90
9450;DHT22;4763;48.370;10.874;2024-03-08T12:09:43;9.90;99.90
9450;DHT22;4763;48.370;10.874;2024-03-08T12:15:00;9.90;99.90
9450;DHT22;4763;48.370;10.874;2024-03-08T12:17:28;10.30;99.90
9450;DHT22;4763;48.370;10.874;2024-03-08T12:19:55;10.30;99.90
9450;DHT22;4763;48.370;10.874;2024-03-08T12:22:25;10.60;99.90
9450;DHT22;4763;48.370;10.874;2024-03-08T13:27:07;12.20;99.90
9450;DHT22;4763;48.370;10.874;2024-03-08T13:48:27;12.50;99.90
9450;DHT22;4763;48.370;10.874;2024-03-08T13:55:29;12.20;99.90
9450;DHT22;4763;48.370;10.874;2024-03-08T13:59:18;12.20;99.90
9450;DHT22;4763;48.370;10.874;2024-03-08T14:02:47;12.30;99.90
9450;DHT22;4763;48.370;10.874;2024-03-08T14:05:16;12.20;99.90
9450;DHT22;4763;48.370;10.874;2024-03-08T14:07:45;12.20;99.90
9450;DHT22;4763;48.370;10.874;2024-03-08T14:10:14;12.30;99.90
9450;DHT22;4763;48.370;10.874;2024-03-08T14:12:42;12.20;99.90
9450;DHT22;4763;48.370;10.874;2024-03-08T14:15:10;12.60;99.90
9450;DHT22;4763;48.370;10.874;2024-03-08T14:17:38;12.70;99.90
9450;DHT22;4763;48.370;10.874;2024-03-08T14:20:06;12.50;99.90
9450;DHT22;4763;48.370;10.874;2024-03-08T14:22:34;12.30;99.90
9450;DHT22;4763;48.370;10.874;2024-03-08T14:25:07;12.30;99.90
9450;DHT22;4763;48.370;10.874;2024-03-08T14:27:42;12.50;99.90
9450;DHT22;4763;48.370;10.874;2024-03-08T14:30:10;12.90;99.90
9450;DHT22;4763;48.370;10.874;2024-03-08T14:32:37;12.90;99.90
9450;DHT22;4763;48.370;10.874;2024-03-08T14:35:06;12.60;99.90
9450;DHT22;4763;48.370;10.874;2024-03-08T14:37:34;12.30;99.90
9450;DHT22;4763;48.370;10.874;2024-03-08T14:40:01;12.40;99.90
9450;DHT22;4763;48.370;10.874;2024-03-08T14:42:30;12.50;99.90
9450;DHT22;4763;48.370;10.874;2024-03-08T14:44:57;12.60;99.90
9450;DHT22;4763;48.370;10.874;2024-03-08T14:47:25;12.70;99.90
9450;DHT22;4763;48.370;10.874;2024-03-08T14:49:57;13.10;99.90
9450;DHT22;4763;48.370;10.874;2024-03-08T14:52:25;12.90;99.90
9450;DHT22;4763;48.370;10.874;2024-03-08T14:55:01;12.60;99.90
9450;DHT22;4763;48.370;10.874;2024-03-08T14:57:29;12.50;99.90
9450;DHT22;4763;48.370;10.874;2024-03-08T14:59:58;12.90;99.90
9450;DHT22;4763;48.370;10.874;2024-03-08T15:02:28;12.80;99.90
9450;DHT22;4763;48.370;10.874;2024-03-08T15:04:55;12.80;99.90
9450;DHT22;4763;48.370;10.874;2024-03-08T15:07:26;12.50;99.90
9450;DHT22;4763;48.370;10.874;2024-03-08T15:09:55;12.60;99.90
9450;DHT22;4763;48.370;10.874;2024-03-08T15:12:24;12.50;99.90
9450;DHT22;4763;48.370;10.874;2024-03-08T15:14:51;12.60;99.90
9450;DHT22;4763;48.370;10.874;2024-03-08T15:17:18;12.70;99.90
9450;DHT22;4763;48.370;10.874;2024-03-08T15:30:37;12.70;99.90
9450;DHT22;4763;48.370;10.874;2024-03-08T15:33:05;12.60;99.90
9450;DHT22;4763;48.370;10.874;2024-03-08T15:35:36;12.70;99.90
9450;DHT22;4763;48.370;10.874;2024-03-08T15:38:03;12.60;99.90
9450;DHT22;4763;48.370;10.874;2024-03-08T15:40:30;13.00;99.90
9450;DHT22;4763;48.370;10.874;2024-03-08T15:43:00;13.30;99.90
9450;DHT22;4763;48.370;10.874;2024-03-08T15:45:31;13.30;99.90
9450;DHT22;4763;48.370;10.874;2024-03-08T15:47:59;13.40;99.90
9450;DHT22;4763;48.370;10.874;2024-03-08T15:50:30;13.40;99.90
9450;DHT22;4763;48.370;10.874;2024-03-08T15:53:03;13.30;99.90
9450;DHT22;4763;48.370;10.874;2024-03-08T15:55:30;12.40;99.90
9450;DHT22;4763;48.370;10.874;2024-03-08T15:57:58;11.50;99.90
9450;DHT22;4763;48.370;10.874;2024-03-08T16:00:25;10.80;99.90
9450;DHT22;4763;48.370;10.874;2024-03-08T16:03:03;10.60;99.90
9450;DHT22;4763;48.370;10.874;2024-03-08T16:05:32;10.20;99.90
9450;DHT22;4763;48.370;10.874;2024-03-08T16:08:00;10.00;99.90
9450;DHT22;4763;48.370;10.874;2024-03-08T16:10:27;9.80;99.90
9450;DHT22;4763;48.370;10.874;2024-03-08T16:12:55;9.70;99.90
9450;DHT22;4763;48.370;10.874;2024-03-08T16:15:22;9.60;99.90
9450;DHT22;4763;48.370;10.874;2024-03-08T16:17:49;9.60;99.90
9450;DHT22;4763;48.370;10.874;2024-03-08T16:20:18;9.30;99.90
9450;DHT22;4763;48.370;10.874;2024-03-08T16:22:47;9.30;99.90
9450;DHT22;4763;48.370;10.874;2024-03-08T16:25:17;9.20;99.90
9450;DHT22;4763;48.370;10.874;2024-03-08T16:27:46;9.10;99.90
9450;DHT22;4763;48.370;10.874;2024-03-08T16:30:13;9.10;99.90
9450;DHT22;4763;48.370;10.874;2024-03-08T16:32:42;9.10;99.90
9450;DHT22;4763;48.370;10.874;2024-03-08T16:35:10;9.20;99.90
9450;DHT22;4763;48.370;10.874;2024-03-08T16:37:39;9.00;99.90
9450;DHT22;4763;48.370;10.874;2024-03-08T16:40:08;8.90;99.90
9450;DHT22;4763;48.370;10.874;2024-03-08T16:42:42;8.80;99.90
9450;DHT22;4763;48.370;10.874;2024-03-08T16:45:09;8.80;99.90
9450;DHT22;4763;48.370;10.874;2024-03-08T16:47:37;8.70;99.90
